Saint Anthony, Canada
Current Conditions -  °F | °C
As of 3:00 AM on Sunday 21 Dec 2014 (Local Time) from CYAY Reporting Station
Overcast Overcast  
Wind Chill: 14°   Ceiling: 1800
Heat Index: 25°   Visibility: 9mi
Dew Point: 21°   Wind: 12mph
Humidity: 86%   Direction: 250°WSW
Pressure: 30.23"   Gusts: 18mph
Location:  51.48°N, 55.81°W
Report Text: CYAY 210600Z AUTO 25010G16KT 9SM OVC018 M04/M06 A3023 RMK SLP238
Loading
Personal Weather Stations






























Interactive Weather Map New forecast layout! Learn more

10-Day Weather Forecast

Advertisements
Track Severe Weather on mobile